Time;durP1;ratioP1;P1;durP2;ratioP2;P2;SDS_P1;SDS_P2;PMS_P1;PMS_P2;Temp;Humidity;BMP_temperature;BMP_pressure;BME280_temperature;BME280_humidity;BME280_pressure;Samples;Min_cycle;Max_cycle;Signal;HPM_P1;HPM_P2
2022/07/06 19:08:57;;;;;;;5.32;1.80;;;;;;;21.78;37.27;98838.69;4510165;31;201569;-79
2022/07/06 19:11:22;;;;;;;5.32;1.77;;;;;;;22.43;36.09;98842.91;4500882;31;20455;-79
2022/07/06 19:13:48;;;;;;;4.95;1.85;;;;;;;23.27;34.43;98830.53;4494652;31;20087;-82
2022/07/06 19:16:13;;;;;;;9.45;2.10;;;;;;;23.77;33.49;98827.94;4493423;31;20119;-82
2022/07/06 19:18:39;;;;;;;4.75;2.00;;;;;;;24.05;32.97;98836.53;4504536;31;20092;-82
2022/07/06 19:21:05;;;;;;;3.95;1.65;;;;;;;24.28;32.59;98839.38;4498208;31;20405;-82
2022/07/06 19:23:31;;;;;;;4.47;1.50;;;;;;;24.35;32.53;98829.63;4498516;31;20490;-82
2022/07/06 19:25:57;;;;;;;5.50;1.75;;;;;;;24.36;32.51;98834.00;4500651;31;20088;-78
2022/07/06 19:28:22;;;;;;;3.90;1.73;;;;;;;24.52;32.11;98833.97;4502704;31;20111;-80
2022/07/06 19:30:48;;;;;;;3.83;1.73;;;;;;;24.59;31.97;98827.91;4504103;31;20120;-79
2022/07/06 19:33:13;;;;;;;6.50;1.90;;;;;;;24.52;32.19;98833.97;4498199;31;20128;-77
2022/07/06 19:35:38;;;;;;;9.68;2.00;;;;;;;24.60;32.08;98832.28;4502870;31;20390;-76
2022/07/06 19:38:04;;;;;;;3.78;1.50;;;;;;;24.67;31.80;98830.59;4504199;31;20130;-75
2022/07/06 19:40:29;;;;;;;3.47;1.60;;;;;;;24.60;31.93;98838.50;4501607;31;20084;-78
2022/07/06 19:42:55;;;;;;;4.53;1.80;;;;;;;24.76;31.71;98832.22;4501184;31;20470;-77
2022/07/06 19:45:23;;;;;;;4.22;1.55;;;;;;;24.40;32.31;98838.03;4502250;31;20084;-77
2022/07/06 19:47:48;;;;;;;4.53;1.70;;;;;;;24.76;31.69;98839.47;4499962;31;20114;-76
2022/07/06 19:50:14;;;;;;;4.35;1.58;;;;;;;24.50;32.18;98844.06;4486879;32;20104;-75
2022/07/06 19:52:39;;;;;;;5.47;2.25;;;;;;;24.59;32.05;98852.16;4492137;32;20114;-75
2022/07/06 19:55:06;;;;;;;3.87;1.60;;;;;;;24.70;31.97;98844.53;4511080;31;20136;-77
2022/07/06 19:57:31;;;;;;;4.95;1.60;;;;;;;24.57;32.28;98843.41;4501573;31;20087;-75
2022/07/06 19:59:57;;;;;;;3.78;1.62;;;;;;;24.50;32.40;98846.75;4507737;31;20136;-75
2022/07/06 20:02:23;;;;;;;3.78;1.65;;;;;;;24.48;32.55;98847.94;4507355;31;20084;-75
2022/07/06 20:04:51;;;;;;;4.82;1.77;;;;;;;24.26;32.79;98850.34;4502347;31;20085;-75
2022/07/06 20:07:16;;;;;;;4.75;1.70;;;;;;;24.29;32.77;98851.84;4511104;31;20185;-74
2022/07/06 20:09:42;;;;;;;4.82;1.83;;;;;;;24.42;32.51;98854.84;4488713;31;20108;-76
2022/07/06 20:12:08;;;;;;;15.18;2.90;;;;;;;24.14;32.98;98846.28;4506667;31;20080;-75
2022/07/06 20:14:33;;;;;;;5.55;1.58;;;;;;;24.37;32.44;98857.22;4508517;31;20102;-73
2022/07/06 20:16:58;;;;;;;5.80;1.92;;;;;;;24.10;32.86;98863.78;4501226;31;20135;-74
2022/07/06 20:19:24;;;;;;;6.57;1.62;;;;;;;24.18;32.46;98857.56;4504358;31;20092;-75
2022/07/06 20:21:50;;;;;;;4.47;1.83;;;;;;;24.02;32.84;98858.41;4493021;31;20122;-75
2022/07/06 20:24:16;;;;;;;8.60;1.92;;;;;;;24.14;32.34;98852.53;4486409;32;20112;-75
2022/07/06 20:26:43;;;;;;;3.72;1.77;;;;;;;24.08;32.37;98865.81;4498653;31;20146;-76
2022/07/06 20:29:08;;;;;;;4.78;1.70;;;;;;;23.92;32.51;98856.72;4487387;31;20101;-75
2022/07/06 20:31:34;;;;;;;4.95;1.60;;;;;;;23.82;32.30;98864.13;4499767;31;20088;-75
2022/07/06 20:34:01;;;;;;;4.15;1.40;;;;;;;23.86;31.98;98867.34;4494113;31;20136;-76
2022/07/06 20:36:26;;;;;;;3.57;1.60;;;;;;;23.84;32.03;98866.66;4493985;31;20152;-76
2022/07/06 20:38:51;;;;;;;4.15;1.70;;;;;;;23.88;32.00;98866.16;4484528;31;20462;-74
2022/07/06 20:41:17;;;;;;;3.20;1.40;;;;;;;23.80;32.06;98870.66;4479952;31;20096;-74
2022/07/06 20:43:43;;;;;;;4.22;1.77;;;;;;;23.83;32.06;98875.72;4480638;31;20416;-75
2022/07/06 20:46:09;;;;;;;2.87;1.50;;;;;;;23.72;32.41;98869.62;4493249;31;20108;-74
2022/07/06 20:48:34;;;;;;;4.25;1.80;;;;;;;23.64;32.48;98871.44;4493898;31;20144;-74
2022/07/06 20:51:00;;;;;;;4.32;1.50;;;;;;;23.56;32.64;98874.97;4493657;31;20134;-73
2022/07/06 20:53:25;;;;;;;5.45;1.75;;;;;;;23.43;32.74;98869.22;4480318;31;20147;-75
2022/07/06 20:55:51;;;;;;;4.82;1.52;;;;;;;23.58;32.40;98864.06;4494320;31;20156;-76
2022/07/06 20:58:16;;;;;;;8.30;2.08;;;;;;;23.29;32.85;98865.31;4493279;31;20096;-76
2022/07/06 21:00:42;;;;;;;5.15;1.60;;;;;;;23.13;33.01;98869.62;4493633;31;20076;-77
2022/07/06 21:03:07;;;;;;;3.35;1.50;;;;;;;23.23;32.89;98866.81;4492395;31;20134;-77
2022/07/06 21:05:33;;;;;;;4.80;1.60;;;;;;;23.19;32.93;98870.84;4492995;31;20097;-78
2022/07/06 21:08:03;;;;;;;3.70;1.50;;;;;;;22.89;33.48;98869.50;4493658;31;20143;-80
2022/07/06 21:10:30;;;;;;;4.97;1.65;;;;;;;23.07;33.18;98864.91;4476328;32;20089;-80
2022/07/06 21:12:56;;;;;;;3.95;1.60;;;;;;;23.08;33.29;98866.63;4486831;32;20084;-79
2022/07/06 21:15:23;;;;;;;4.97;1.60;;;;;;;22.78;33.88;98881.37;4500052;31;20100;-79
2022/07/06 21:17:48;;;;;;;3.45;1.50;;;;;;;23.00;33.51;98868.38;4492347;31;20088;-78
2022/07/06 21:20:14;;;;;;;4.22;1.60;;;;;;;22.79;33.93;98874.97;4491169;31;20134;-80
2022/07/06 21:22:39;;;;;;;4.55;1.55;;;;;;;22.95;33.65;98867.03;4494783;31;20076;-80
2022/07/06 21:25:05;;;;;;;2.95;1.30;;;;;;;22.96;33.67;98868.69;4495393;31;20475;-78
2022/07/06 21:27:31;;;;;;;3.95;1.60;;;;;;;22.88;33.91;98878.56;4487335;31;20448;-81
2022/07/06 21:29:56;;;;;;;3.95;1.50;;;;;;;23.08;33.72;98881.88;4485330;32;20111;-80
2022/07/06 21:32:22;;;;;;;4.35;1.60;;;;;;;22.83;34.26;98875.50;4486795;31;20152;-79
2022/07/06 21:34:47;;;;;;;3.45;1.60;;;;;;;22.74;34.51;98878.16;4487364;31;20140;-81
2022/07/06 21:37:13;;;;;;;3.33;1.40;;;;;;;22.71;34.75;98880.31;4487283;31;20429;-80
2022/07/06 21:39:38;;;;;;;3.62;1.60;;;;;;;22.81;34.78;98885.56;4487381;32;20111;-80
2022/07/06 21:42:04;;;;;;;4.00;1.48;;;;;;;22.60;35.38;98885.94;4487406;31;20112;-81
2022/07/06 21:44:30;;;;;;;3.28;1.42;;;;;;;22.81;35.22;98889.09;4485906;32;20097;-79
2022/07/06 21:46:55;;;;;;;4.05;1.77;;;;;;;22.57;35.85;98885.25;4487244;31;20088;-81
2022/07/06 21:49:21;;;;;;;4.75;1.83;;;;;;;22.79;35.56;98880.34;4486231;32;20340;-81
2022/07/06 21:51:46;;;;;;;3.35;1.60;;;;;;;22.76;35.63;98881.53;4499766;31;20362;-79
2022/07/06 21:54:11;;;;;;;2.97;1.50;;;;;;;22.86;35.64;98889.47;4503151;31;20092;-79
2022/07/06 21:56:37;;;;;;;3.83;1.50;;;;;;;22.69;36.08;98893.06;4502783;31;20134;-79
2022/07/06 21:59:02;;;;;;;6.82;1.60;;;;;;;22.52;36.33;98892.97;4502966;31;20104;-79
2022/07/06 22:01:28;;;;;;;4.55;1.67;;;;;;;22.55;36.37;98894.50;4483427;31;20096;-79
2022/07/06 22:03:56;;;;;;;3.42;1.52;;;;;;;22.65;36.22;98897.06;4492218;31;20096;-78
2022/07/06 22:06:21;;;;;;;3.90;1.50;;;;;;;22.72;36.04;98888.22;4487236;32;20447;-79
2022/07/06 22:08:47;;;;;;;4.18;1.42;;;;;;;22.97;35.70;98889.19;4472538;32;20089;-78
2022/07/06 22:11:12;;;;;;;3.70;1.58;;;;;;;23.04;35.49;98891.25;4487237;32;20111;-79
2022/07/06 22:13:42;;;;;;;7.53;1.67;;;;;;;23.05;35.67;98901.84;4487049;32;20096;-79
2022/07/06 22:16:15;;;;;;;6.22;1.87;;;;;;;23.13;35.62;98899.19;4473145;32;20470;-79
2022/07/06 22:18:42;;;;;;;5.25;1.70;;;;;;;23.13;35.68;98895.69;4487094;32;20443;-79
2022/07/06 22:21:09;;;;;;;4.43;1.50;;;;;;;22.96;35.99;98900.94;4472717;32;20076;-79
2022/07/06 22:23:36;;;;;;;3.77;1.50;;;;;;;23.26;35.51;98896.06;4487001;32;20284;-79
2022/07/06 22:26:01;;;;;;;6.85;2.00;;;;;;;23.26;35.52;98901.44;4472959;32;20187;-79
2022/07/06 22:28:27;;;;;;;3.30;1.50;;;;;;;22.99;35.99;98909.69;4472946;32;20084;-78
2022/07/06 22:30:52;;;;;;;3.72;1.42;;;;;;;23.10;35.80;98915.66;4487135;32;20144;-78
2022/07/06 22:33:18;;;;;;;3.50;1.55;;;;;;;23.20;35.70;98915.53;4487102;32;20115;-78
2022/07/06 22:35:43;;;;;;;4.75;1.60;;;;;;;23.27;35.85;98913.03;4472934;32;20156;-79
2022/07/06 22:38:08;;;;;;;3.47;1.58;;;;;;;22.89;36.43;98920.53;4487111;32;20085;-77
2022/07/06 22:43:18;;;;;;;4.30;1.60;;;;;;;23.16;36.11;98908.81;4486496;32;20130;-77
2022/07/06 22:45:43;;;;;;;5.45;1.70;;;;;;;23.16;36.13;98915.00;4469106;31;20136;-77
2022/07/06 22:48:09;;;;;;;3.75;1.48;;;;;;;23.05;36.38;98901.84;4502426;31;20088;-77
2022/07/06 22:50:34;;;;;;;4.18;1.55;;;;;;;23.13;36.31;98911.78;4473680;32;20080;-76
2022/07/06 22:53:00;;;;;;;4.75;1.45;;;;;;;23.01;36.29;98921.13;4486727;32;20496;-76
2022/07/06 22:55:25;;;;;;;3.92;1.50;;;;;;;23.04;36.24;98921.66;4486667;32;20096;-75
2022/07/06 22:57:51;;;;;;;4.18;1.70;;;;;;;23.09;36.14;98907.75;4486557;32;20115;-76
2022/07/06 23:00:17;;;;;;;3.80;1.60;;;;;;;23.16;36.07;98911.50;4486625;32;20453;-78
2022/07/06 23:02:42;;;;;;;2.65;1.52;;;;;;;23.16;36.12;98920.38;4486574;32;20100;-79
2022/07/06 23:05:08;;;;;;;4.43;1.60;;;;;;;23.09;36.08;98916.66;4486555;32;20385;-79
2022/07/06 23:07:37;;;;;;;3.45;1.50;;;;;;;22.97;36.39;98926.81;4499940;31;20493;-79
2022/07/06 23:10:03;;;;;;;4.50;1.65;;;;;;;23.07;36.30;98925.87;4502299;31;20453;-78
2022/07/06 23:12:29;;;;;;;3.95;1.60;;;;;;;22.75;36.72;98925.50;4487859;31;20100;-77
2022/07/06 23:14:54;;;;;;;4.18;1.87;;;;;;;22.94;36.49;98924.41;4502244;31;20111;-77
2022/07/06 23:17:20;;;;;;;3.53;1.70;;;;;;;23.00;36.33;98925.63;4502094;31;20096;-79
2022/07/06 23:19:45;;;;;;;3.25;1.50;;;;;;;22.97;36.47;98931.34;4502158;31;20412;-79
2022/07/06 23:22:11;;;;;;;3.65;1.70;;;;;;;23.01;36.40;98932.72;4502010;31;20477;-79
2022/07/06 23:24:36;;;;;;;3.28;1.50;;;;;;;23.06;36.45;98932.25;4501992;31;20099;-79
2022/07/06 23:27:02;;;;;;;3.92;1.70;;;;;;;23.13;36.47;98933.28;4501982;31;20107;-79
2022/07/06 23:29:27;;;;;;;5.32;1.58;;;;;;;23.20;36.18;98928.97;4501947;31;20536;-79
2022/07/06 23:31:53;;;;;;;4.20;1.65;;;;;;;23.10;36.22;98931.78;4501887;31;20405;-78
2022/07/06 23:34:18;;;;;;;3.30;1.50;;;;;;;23.08;36.23;98925.72;4487578;31;20100;-79
2022/07/06 23:36:43;;;;;;;4.22;1.55;;;;;;;22.97;36.25;98934.87;4500741;31;20142;-79
2022/07/06 23:39:09;;;;;;;3.33;1.70;;;;;;;22.68;36.69;98929.81;4499613;31;20126;-79
2022/07/06 23:41:34;;;;;;;3.10;1.55;;;;;;;23.06;36.26;98934.94;4485644;31;20105;-79
2022/07/06 23:44:00;;;;;;;4.28;1.73;;;;;;;23.06;36.43;98929.56;4501827;31;20088;-79
2022/07/06 23:46:25;;;;;;;4.62;1.73;;;;;;;23.09;36.00;98926.56;4501820;31;20378;-79
2022/07/06 23:48:50;;;;;;;4.03;1.65;;;;;;;23.05;35.90;98926.03;4501676;31;20092;-79
2022/07/06 23:51:16;;;;;;;5.15;1.62;;;;;;;22.90;36.27;98930.28;4501697;31;20368;-79
2022/07/06 23:53:41;;;;;;;5.32;1.58;;;;;;;23.04;36.16;98927.03;4487484;31;20352;-79
2022/07/06 23:56:07;;;;;;;3.37;1.45;;;;;;;22.96;36.15;98926.97;4503894;31;20096;-78
2022/07/06 23:58:32;;;;;;;4.37;1.60;;;;;;;22.97;36.00;98924.13;4489870;31;20084;-79
